Christine Anderson — WCN2606 — position and weather

sailwx.info

Track history (hours):
 
Tides and Currents Weather Stations Pressure Air Temp Water Temp Dewpoint Dewpoint Depression Visibility Wind Speed Wind Dir Waves Ship Positions

Christine Anderson

Owner: PIERCE, COUNTY OF, TACOMA, WA. More information available from US FCC via Universal Licensing System and Coast Guard Vessel Documentation Center.

Last reported at 2017-Mar-22 20:25 UTC. Time now 2017-Mar-22 22:20 UTC.
Position N 47°11' W 122°36'.

MMSI: 366659730.

Date/timePositionNaut miles runAvg speedWind from/ knotsBaromVisibWave heightAir tempDewpointWater temp
2017-Mar-22 20:25N 47°11' W 122°36'2 2.8
2017-Mar-22 19:33N 47°11' W 122°40'0 0.2
2017-Mar-22 17:33N 47°11' W 122°40'0 0.2
2017-Mar-22 16:25N 47°11' W 122°41'0 0.0
2017-Mar-22 15:33N 47°11' W 122°41'0 0.4
2017-Mar-22 14:32N 47°11' W 122°40'3 2.5
2017-Mar-22 13:31N 47°11' W 122°36'0 0.3
2017-Mar-22 12:33N 47°10' W 122°36'0 0.0
2017-Mar-22 04:30N 47°10' W 122°36'1 0.6
2017-Mar-22 02:29N 47°10' W 122°38'1 1.1
2017-Mar-22 01:18N 47°10' W 122°36'0 0.0
2017-Mar-22 00:21N 47°10' W 122°36'2 1.9
2017-Mar-21 23:33N 47°11' W 122°38'1 0.7
2017-Mar-21 22:33N 47°11' W 122°39'0 0.1
2017-Mar-21 21:32N 47°11' W 122°39'2 1.8
2017-Mar-21 20:27N 47°11' W 122°36'3 3.0
2017-Mar-21 19:31N 47°11' W 122°40'2 2.1
2017-Mar-21 18:33N 47°11' W 122°37'2 2.2
2017-Mar-21 17:33N 47°11' W 122°41'0 0.4
2017-Mar-21 16:33N 47°11' W 122°40'0 0.4
2017-Mar-21 15:32N 47°11' W 122°41'0 0.4
2017-Mar-21 14:33N 47°11' W 122°40'2 2.3
2017-Mar-21 13:30N 47°11' W 122°36'0 0.4
2017-Mar-21 12:33N 47°10' W 122°36'0 0.0
2017-Mar-21 04:29N 47°11' W 122°36'1 0.7
2017-Mar-21 02:33N 47°10' W 122°38'1 1.1
2017-Mar-21 01:17N 47°11' W 122°36'0 0.3
2017-Mar-21 00:32N 47°11' W 122°37'2 1.9
2017-Mar-20 23:33N 47°11' W 122°39'0 0.4
2017-Mar-20 22:30N 47°11' W 122°39'1 0.6
2017-Mar-20 21:32N 47°11' W 122°40'2 1.9
2017-Mar-20 20:21N 47°11' W 122°36'  
2017-Mar-15 20:28N 47°10' W 122°36'3 3.3
2017-Mar-15 19:33N 47°11' W 122°41'0 0.0
2017-Mar-15 18:33N 47°11' W 122°41'0 0.0
2017-Mar-15 17:33N 47°11' W 122°41'0 0.0
2017-Mar-15 16:33N 47°11' W 122°41'0 0.2
2017-Mar-15 15:33N 47°11' W 122°40'0 0.0
2017-Mar-15 14:33N 47°11' W 122°40'3 2.9
2017-Mar-15 13:33N 47°10' W 122°36'0 0.0
2017-Mar-15 12:32N 47°10' W 122°36'0 0.0
2017-Mar-15 04:28N 47°10' W 122°36'0 0.0
2017-Mar-15 03:33N 47°10' W 122°36'1 1.2
2017-Mar-15 02:30N 47°10' W 122°38'1 1.3
2017-Mar-15 01:31N 47°10' W 122°36'0 0.3
2017-Mar-15 00:32N 47°11' W 122°36'1 1.1
2017-Mar-14 23:33N 47°11' W 122°38'0 0.4
2017-Mar-14 22:32N 47°11' W 122°38'0 0.3
2017-Mar-14 21:32N 47°11' W 122°39'2 1.9
2017-Mar-14 20:33N 47°10' W 122°36'3 2.7
2017-Mar-14 19:33N 47°11' W 122°40'3 2.6
2017-Mar-14 18:31N 47°10' W 122°36'3 2.6
2017-Mar-14 17:23N 47°11' W 122°40'0 0.3
2017-Mar-14 16:33N 47°11' W 122°40'0 0.2
2017-Mar-14 15:33N 47°11' W 122°40'0 0.2
2017-Mar-14 14:33N 47°11' W 122°40'3 2.6
2017-Mar-14 13:33N 47°10' W 122°36'0 0.1
2017-Mar-14 12:33N 47°10' W 122°36'0 0.0
2017-Mar-14 04:33N 47°10' W 122°36'0 0.0
2017-Mar-14 03:27N 47°10' W 122°36'1 1.4
2017-Mar-14 02:33N 47°10' W 122°38'1 1.2
2017-Mar-14 01:30N 47°10' W 122°36'0 0.2
2017-Mar-14 00:32N 47°11' W 122°36'2 1.6
2017-Mar-13 23:33N 47°11' W 122°39'0 0.3
2017-Mar-13 22:33N 47°11' W 122°39'0 0.1
2017-Mar-13 21:32N 47°11' W 122°39'2 1.4
2017-Mar-13 20:07N 47°10' W 122°36'3 5.0
2017-Mar-13 19:33N 47°11' W 122°40'3 2.8
2017-Mar-13 18:33N 47°10' W 122°36'3 3.0
2017-Mar-13 17:33N 47°11' W 122°41'0 0.1
2017-Mar-13 16:33N 47°11' W 122°40'0 0.0
2017-Mar-13 15:32N 47°11' W 122°41'0 0.4
2017-Mar-13 14:33N 47°11' W 122°40'3 2.6
2017-Mar-13 13:33N 47°10' W 122°36'0 0.3
2017-Mar-13 12:31N 47°11' W 122°36'0 0.1
2017-Mar-13 09:05N 47°10' W 122°36'0 0.0
2017-Mar-13 08:33N 47°10' W 122°36'0 0.0
2017-Mar-13 04:29N 47°10' W 122°36'1 0.7
2017-Mar-13 02:33N 47°10' W 122°38'1 1.0
2017-Mar-13 01:19N 47°10' W 122°36'0 0.3
2017-Mar-13 00:04N 47°11' W 122°37'2 2.9
2017-Mar-12 23:31N 47°11' W 122°39'0 0.1
2017-Mar-12 22:31N 47°11' W 122°39'0 0.3
2017-Mar-12 21:32N 47°11' W 122°39'  
Track history (hours):
 
Tides and Currents Weather Stations Pressure Air Temp Water Temp Dewpoint Dewpoint Depression Visibility Wind Speed Wind Dir Waves Ship Positions

Christine Anderson

Owner: PIERCE, COUNTY OF, TACOMA, WA. More information available from US FCC via Universal Licensing System and Coast Guard Vessel Documentation Center.

Last reported at 2017-Mar-22 20:25 UTC. Time now 2017-Mar-22 22:20 UTC.
Position N 47°11' W 122°36'.

MMSI: 366659730.

Date/timePositionNaut miles runAvg speedWind from/ knotsBaromVisibWave heightAir tempDewpointWater temp
2017-Mar-22 20:25N 47°11' W 122°36'2 2.8
2017-Mar-22 19:33N 47°11' W 122°40'0 0.2
2017-Mar-22 17:33N 47°11' W 122°40'0 0.2
2017-Mar-22 16:25N 47°11' W 122°41'0 0.0
2017-Mar-22 15:33N 47°11' W 122°41'0 0.4
2017-Mar-22 14:32N 47°11' W 122°40'3 2.5
2017-Mar-22 13:31N 47°11' W 122°36'0 0.3
2017-Mar-22 12:33N 47°10' W 122°36'0 0.0
2017-Mar-22 04:30N 47°10' W 122°36'1 0.6
2017-Mar-22 02:29N 47°10' W 122°38'1 1.1
2017-Mar-22 01:18N 47°10' W 122°36'0 0.0
2017-Mar-22 00:21N 47°10' W 122°36'2 1.9
2017-Mar-21 23:33N 47°11' W 122°38'1 0.7
2017-Mar-21 22:33N 47°11' W 122°39'0 0.1
2017-Mar-21 21:32N 47°11' W 122°39'2 1.8
2017-Mar-21 20:27N 47°11' W 122°36'3 3.0
2017-Mar-21 19:31N 47°11' W 122°40'2 2.1
2017-Mar-21 18:33N 47°11' W 122°37'2 2.2
2017-Mar-21 17:33N 47°11' W 122°41'0 0.4
2017-Mar-21 16:33N 47°11' W 122°40'0 0.4
2017-Mar-21 15:32N 47°11' W 122°41'0 0.4
2017-Mar-21 14:33N 47°11' W 122°40'2 2.3
2017-Mar-21 13:30N 47°11' W 122°36'0 0.4
2017-Mar-21 12:33N 47°10' W 122°36'0 0.0
2017-Mar-21 04:29N 47°11' W 122°36'1 0.7
2017-Mar-21 02:33N 47°10' W 122°38'1 1.1
2017-Mar-21 01:17N 47°11' W 122°36'0 0.3
2017-Mar-21 00:32N 47°11' W 122°37'2 1.9
2017-Mar-20 23:33N 47°11' W 122°39'0 0.4
2017-Mar-20 22:30N 47°11' W 122°39'1 0.6
2017-Mar-20 21:32N 47°11' W 122°40'2 1.9
2017-Mar-20 20:21N 47°11' W 122°36'  
2017-Mar-15 20:28N 47°10' W 122°36'3 3.3
2017-Mar-15 19:33N 47°11' W 122°41'0 0.0
2017-Mar-15 18:33N 47°11' W 122°41'0 0.0
2017-Mar-15 17:33N 47°11' W 122°41'0 0.0
2017-Mar-15 16:33N 47°11' W 122°41'0 0.2
2017-Mar-15 15:33N 47°11' W 122°40'0 0.0
2017-Mar-15 14:33N 47°11' W 122°40'3 2.9
2017-Mar-15 13:33N 47°10' W 122°36'0 0.0
2017-Mar-15 12:32N 47°10' W 122°36'0 0.0
2017-Mar-15 04:28N 47°10' W 122°36'0 0.0
2017-Mar-15 03:33N 47°10' W 122°36'1 1.2
2017-Mar-15 02:30N 47°10' W 122°38'1 1.3
2017-Mar-15 01:31N 47°10' W 122°36'0 0.3
2017-Mar-15 00:32N 47°11' W 122°36'1 1.1
2017-Mar-14 23:33N 47°11' W 122°38'0 0.4
2017-Mar-14 22:32N 47°11' W 122°38'0 0.3
2017-Mar-14 21:32N 47°11' W 122°39'2 1.9
2017-Mar-14 20:33N 47°10' W 122°36'3 2.7
2017-Mar-14 19:33N 47°11' W 122°40'3 2.6
2017-Mar-14 18:31N 47°10' W 122°36'3 2.6
2017-Mar-14 17:23N 47°11' W 122°40'0 0.3
2017-Mar-14 16:33N 47°11' W 122°40'0 0.2
2017-Mar-14 15:33N 47°11' W 122°40'0 0.2
2017-Mar-14 14:33N 47°11' W 122°40'3 2.6
2017-Mar-14 13:33N 47°10' W 122°36'0 0.1
2017-Mar-14 12:33N 47°10' W 122°36'0 0.0
2017-Mar-14 04:33N 47°10' W 122°36'0 0.0
2017-Mar-14 03:27N 47°10' W 122°36'1 1.4
2017-Mar-14 02:33N 47°10' W 122°38'1 1.2
2017-Mar-14 01:30N 47°10' W 122°36'0 0.2
2017-Mar-14 00:32N 47°11' W 122°36'2 1.6
2017-Mar-13 23:33N 47°11' W 122°39'0 0.3
2017-Mar-13 22:33N 47°11' W 122°39'0 0.1
2017-Mar-13 21:32N 47°11' W 122°39'2 1.4
2017-Mar-13 20:07N 47°10' W 122°36'3 5.0
2017-Mar-13 19:33N 47°11' W 122°40'3 2.8
2017-Mar-13 18:33N 47°10' W 122°36'3 3.0
2017-Mar-13 17:33N 47°11' W 122°41'0 0.1
2017-Mar-13 16:33N 47°11' W 122°40'0 0.0
2017-Mar-13 15:32N 47°11' W 122°41'0 0.4
2017-Mar-13 14:33N 47°11' W 122°40'3 2.6
2017-Mar-13 13:33N 47°10' W 122°36'0 0.3
2017-Mar-13 12:31N 47°11' W 122°36'0 0.1
2017-Mar-13 09:05N 47°10' W 122°36'0 0.0
2017-Mar-13 08:33N 47°10' W 122°36'0 0.0
2017-Mar-13 04:29N 47°10' W 122°36'1 0.7
2017-Mar-13 02:33N 47°10' W 122°38'1 1.0
2017-Mar-13 01:19N 47°10' W 122°36'0 0.3
2017-Mar-13 00:04N 47°11' W 122°37'2 2.9
2017-Mar-12 23:31N 47°11' W 122°39'0 0.1
2017-Mar-12 22:31N 47°11' W 122°39'0 0.3
2017-Mar-12 21:32N 47°11' W 122°39'  

Dump ship's entire track history